East Clyde - northern half: Past 24 Hour Conditions

 

Repulse Bay Airport

10:00 PM CST 26 November 2014
This table is a summary of hourly weather conditions for the past 24 hours.
Date / Time
(CST)
Wind(knots) Conditions Visibility(km) Pressure(kPa) Air tempC) Relative humidity(%) Dew pointC) Wind Chill
26 November 2014
22:00 WNW 4 N/A N/A 100.2 -26 74 -29 -32
21:00 NNW 2 N/A N/A 100.2 -26 74 -29 -30
20:00 N 7 N/A N/A 100.2 -27 74 -30 -37
19:00 NNE 7 N/A N/A 100.3 -27 74 -30 -37
18:00 NE 5 N/A N/A 100.3 -27 75 -30 -35
17:00 E 6 N/A N/A 100.3 -27 75 -30 -36
16:00 ESE 4 Ice Crystals 16 100.4 -27 76 -30 -34
15:00 ENE 3 Light Snow 5 100.4 -26 75 -30 -32
14:00 ENE 2 Light Snow 16 100.4 -26 74 -30 -31
13:00 ENE 4 Ice Crystals 24 100.4 -28 73 -31 -35
12:00 NNW 2 Ice Crystals 24 100.5 -28 73 -31 -32
11:00 NNW 3 Ice Crystals 24 100.5 -28 73 -31 -33
10:00 N 4 Ice Crystals 24 100.6 -29 73 -32 -37
9:00 NNW 2 Ice Crystals 24 100.6 -29 74 -33 -33
8:00 WNW 4 Ice Crystals 24 100.6 -29 73 -32 -36
7:00 WNW 4 N/A N/A 100.6 -28 73 -32 -35
6:00 NNW 4 N/A N/A 100.7 -27 71 -31 -34
5:00 NNW 7 N/A N/A 100.6 -27 70 -30 -36
4:00 NNW 10 gust 16 N/A N/A 100.7 -26 71 -30 -38
3:00 NNW 17 gust 22 N/A N/A 100.6 -26 72 -29 -40
2:00 NNW 18 gust 24 N/A N/A 100.6 -25 73 -29 -40
1:00 NNW 14 N/A N/A 100.6 -25 74 -28 -38
0:00 NNW 14 N/A N/A 100.6 -25 74 -28 -38
25 November 2014
23:00 NNW 14 N/A N/A 100.5 -25 74 -28 -38
22:00 NNW 14 N/A N/A 100.5 -25 73 -29 -39
 
Map of Arctic - Eastern Arctic marine weather areas Baker Lake Airport Chesterfield Inlet Airport Coral Harbour Airport Gjoa Haven Airport Kugaaruk Airport Rankin Inlet Airport Shepherd Bay Airport Whale Cove Airport Arctic Bay Brevoort Island Qikiqtarjuaq Airport Cape Dorset Airport Cape Dyer Cape Hooper Clyde Airport Grise Fiord Airport Hall Beach Airport Igloolik Airport Iqaluit Airport Longstaff Bluff Pangnirtung Airport Pond Inlet Airport Repulse Bay Airport Resolute Airport Resolution Island Rowley Island Airport Taloyoak Airport Wager Bay Akulivik Airport Ivujivik Airport Puvirnituq Airport Kangiqsujuaq Airport Kangirsuk Airport Quaqtaq Airport Tasiujaq Airport Cape Kakkiviak Cape Kiglapait Nain Airport Saglek Cape Mercy Kimmirut Airport Aupaluk Airport Salluit Airport Kangiqsualujjuaq Airport Fort Ross
Legend: buoyBuoy land stationLand Station